Time;durP1;ratioP1;P1;durP2;ratioP2;P2;SDS_P1;SDS_P2;PMS_P1;PMS_P2;Temp;Humidity;BMP_temperature;BMP_pressure;BME280_temperature;BME280_humidity;BME280_pressure;Samples;Min_cycle;Max_cycle;Signal;HPM_P1;HPM_P2
2024/02/20 00:02:03;;;;;;;16.90;9.30;;;;;;;10.21;55.09;99568.63;5035880;28;20033;-76
2024/02/20 00:04:28;;;;;;;15.55;8.90;;;;;;;10.21;55.18;99563.41;5035246;28;20072;-76
2024/02/20 00:06:54;;;;;;;16.65;9.43;;;;;;;10.21;55.00;99571.22;5036127;28;20044;-77
2024/02/20 00:09:19;;;;;;;15.50;8.55;;;;;;;10.18;55.21;99567.03;5052757;28;20443;-76
2024/02/20 00:11:45;;;;;;;14.07;8.40;;;;;;;10.20;55.11;99567.81;5035628;28;20064;-76
2024/02/20 00:14:10;;;;;;;17.48;8.38;;;;;;;10.17;54.82;99560.16;5052901;28;20087;-76
2024/02/20 00:16:36;;;;;;;15.07;8.30;;;;;;;10.20;54.95;99562.56;5019419;28;20071;-76
2024/02/20 00:19:01;;;;;;;15.10;7.50;;;;;;;10.17;55.05;99556.69;5052879;28;20033;-76
2024/02/20 00:21:27;;;;;;;14.70;7.93;;;;;;;10.15;54.92;99551.56;5036161;28;20079;-76
2024/02/20 00:23:53;;;;;;;17.48;8.15;;;;;;;10.18;54.80;99559.19;5035847;28;20044;-75
2024/02/20 00:26:21;;;;;;;14.85;7.82;;;;;;;10.18;54.83;99558.38;5053361;28;20039;-77
2024/02/20 00:28:46;;;;;;;15.40;8.55;;;;;;;10.16;54.62;99549.81;5036153;28;20111;-75
2024/02/20 00:31:12;;;;;;;14.65;7.25;;;;;;;10.13;54.74;99549.06;5052182;28;20037;-75
2024/02/20 00:33:37;;;;;;;11.70;6.88;;;;;;;10.17;54.70;99551.47;5018597;28;20060;-75
2024/02/20 00:36:03;;;;;;;13.32;7.65;;;;;;;10.17;54.65;99554.09;5035977;28;20025;-76
2024/02/20 00:38:29;;;;;;;13.13;7.35;;;;;;;10.18;54.51;99542.72;5035724;28;20099;-76
2024/02/20 00:40:55;;;;;;;12.93;7.63;;;;;;;10.19;54.69;99547.84;5051939;28;20025;-75
2024/02/20 00:43:21;;;;;;;12.05;7.20;;;;;;;10.18;54.69;99540.94;5051771;28;20053;-76
2024/02/20 00:45:46;;;;;;;10.90;6.85;;;;;;;10.18;54.46;99542.72;5052267;28;20064;-76
2024/02/20 00:48:12;;;;;;;10.45;6.78;;;;;;;10.18;54.64;99537.50;5018665;28;20025;-76
2024/02/20 00:50:38;;;;;;;17.40;6.30;;;;;;;10.17;54.58;99530.59;5052035;28;20025;-76
2024/02/20 00:53:04;;;;;;;9.27;5.75;;;;;;;10.18;54.65;99538.34;5018989;28;20040;-75
2024/02/20 00:55:29;;;;;;;10.43;6.90;;;;;;;10.17;54.42;99530.59;5050764;28;20659;-75
2024/02/20 00:57:57;;;;;;;10.00;6.15;;;;;;;10.17;54.69;99531.47;5017453;28;20102;-75
2024/02/20 01:00:26;;;;;;;9.55;6.38;;;;;;;10.18;54.68;99527.06;5034810;28;20025;-76
2024/02/20 01:02:51;;;;;;;12.45;7.00;;;;;;;10.14;54.46;99511.59;5050632;28;20032;-76
2024/02/20 01:05:17;;;;;;;9.95;6.50;;;;;;;10.17;54.43;99518.41;5052474;28;20040;-76
2024/02/20 01:07:42;;;;;;;8.57;6.20;;;;;;;10.18;54.46;99522.69;5034832;28;20041;-76
2024/02/20 01:10:08;;;;;;;9.85;6.22;;;;;;;10.17;54.47;99521.03;5034725;28;20048;-77
2024/02/20 01:12:34;;;;;;;11.20;6.70;;;;;;;10.12;54.40;99508.25;5033976;28;20555;-76
2024/02/20 01:14:59;;;;;;;11.27;6.90;;;;;;;10.15;54.33;99504.59;5018214;28;20033;-76
2024/02/20 01:17:25;;;;;;;9.02;6.40;;;;;;;10.13;54.48;99520.34;5052800;28;20033;-77
2024/02/20 01:19:50;;;;;;;11.50;6.50;;;;;;;10.12;54.58;99513.47;5034711;28;20064;-77
2024/02/20 01:22:16;;;;;;;13.77;7.00;;;;;;;10.05;54.37;99506.13;5051522;28;20032;-77
2024/02/20 01:24:41;;;;;;;11.50;6.25;;;;;;;10.08;54.38;99511.16;5051727;28;20052;-75
2024/02/20 01:27:07;;;;;;;12.05;6.82;;;;;;;10.07;54.30;99505.09;5034833;28;20503;-77
2024/02/20 01:29:33;;;;;;;12.18;6.65;;;;;;;10.07;54.12;99506.84;5050986;28;20041;-76
2024/02/20 01:31:58;;;;;;;11.90;6.53;;;;;;;10.01;54.19;99499.41;5051066;28;20477;-75
2024/02/20 01:34:24;;;;;;;13.55;7.50;;;;;;;10.02;54.24;99501.91;5033824;28;20032;-76
2024/02/20 01:36:52;;;;;;;13.98;6.65;;;;;;;10.05;54.21;99504.34;5018041;28;20473;-76
2024/02/20 01:39:20;;;;;;;12.18;6.40;;;;;;;10.05;54.40;99508.72;5034697;28;20480;-75
2024/02/20 01:41:47;;;;;;;10.13;6.63;;;;;;;10.03;54.07;99508.81;5051007;28;20036;-76
2024/02/20 01:44:12;;;;;;;12.13;6.07;;;;;;;10.03;54.29;99501.00;5050490;28;20049;-77
2024/02/20 01:46:38;;;;;;;10.65;5.88;;;;;;;9.98;54.29;99491.78;5051464;28;20029;-77
2024/02/20 01:49:04;;;;;;;11.07;5.95;;;;;;;10.01;53.98;99497.66;5034210;28;20044;-77
2024/02/20 01:51:32;;;;;;;11.65;6.03;;;;;;;9.96;53.89;99484.91;5034447;28;20025;-75
2024/02/20 01:53:58;;;;;;;;;;;;;;;10.01;54.04;99489.84;5034575;28;20036;-76
2024/02/20 01:56:24;;;;;;;10.10;5.22;;;;;;;9.98;54.18;99489.16;5034119;28;20050;-76
2024/02/20 01:58:50;;;;;;;11.20;5.82;;;;;;;9.97;54.23;99485.72;5017741;28;20037;-77
2024/02/20 02:01:15;;;;;;;10.07;5.53;;;;;;;9.98;54.10;99489.16;5034451;28;20107;-75
2024/02/20 02:03:41;;;;;;;11.70;5.80;;;;;;;9.99;54.08;99485.63;5050905;28;20067;-77
2024/02/20 02:06:06;;;;;;;10.05;5.95;;;;;;;9.99;53.91;99489.06;5050583;28;20024;-77
2024/02/20 02:08:32;;;;;;;8.82;5.53;;;;;;;9.94;54.02;99481.53;5034286;28;20052;-76
2024/02/20 02:10:57;;;;;;;12.55;7.00;;;;;;;9.91;54.12;99471.28;5017605;28;20401;-77
2024/02/20 02:13:23;;;;;;;9.02;5.68;;;;;;;9.96;53.75;99473.59;5034139;28;20048;-75
2024/02/20 02:15:48;;;;;;;8.70;5.07;;;;;;;9.96;53.88;99471.84;5017959;28;20025;-76
2024/02/20 02:18:14;;;;;;;9.05;5.57;;;;;;;10.00;53.92;99482.09;5017748;28;20052;-76
2024/02/20 02:20:39;;;;;;;8.75;4.95;;;;;;;10.01;53.83;99483.75;5050933;28;20491;-76
2024/02/20 02:23:05;;;;;;;8.55;5.38;;;;;;;10.01;53.70;99489.84;5050843;28;20087;-76
2024/02/20 02:25:30;;;;;;;8.82;5.15;;;;;;;10.01;53.89;99487.22;5034435;28;20025;-76
2024/02/20 02:27:56;;;;;;;9.40;5.38;;;;;;;10.02;53.84;99488.88;5050829;28;20045;-76
2024/02/20 02:30:23;;;;;;;8.02;4.90;;;;;;;10.01;53.64;99482.00;5037922;28;20463;-75
2024/02/20 02:32:49;;;;;;;7.05;4.55;;;;;;;10.01;53.73;99483.75;5038150;28;20395;-76
2024/02/20 02:35:15;;;;;;;11.13;5.10;;;;;;;10.00;53.72;99482.94;5037668;28;20524;-77
2024/02/20 02:37:40;;;;;;;9.40;5.22;;;;;;;10.01;53.72;99481.16;5055652;28;20108;-76
2024/02/20 02:40:08;;;;;;;6.78;4.93;;;;;;;9.94;53.48;99473.69;5054248;28;20484;-76
2024/02/20 02:42:34;;;;;;;7.63;4.80;;;;;;;9.98;53.67;99484.81;5038140;28;20025;-76
2024/02/20 02:44:59;;;;;;;7.28;4.90;;;;;;;9.99;53.37;99490.84;5054091;28;20041;-76
2024/02/20 02:47:25;;;;;;;7.88;4.85;;;;;;;9.92;53.65;99470.34;5054709;28;20029;-77
2024/02/20 02:49:50;;;;;;;8.27;4.65;;;;;;;9.95;53.72;99480.59;5037670;28;20545;-77
2024/02/20 02:52:16;;;;;;;7.50;4.70;;;;;;;9.95;53.78;99482.38;5021287;28;20043;-77
2024/02/20 02:54:41;;;;;;;9.32;4.90;;;;;;;9.99;53.79;99488.25;5053491;28;20033;-78
2024/02/20 02:57:07;;;;;;;8.18;4.30;;;;;;;10.01;53.74;99487.22;5036307;28;20041;-77
2024/02/20 02:59:33;;;;;;;8.48;4.65;;;;;;;9.95;53.52;99477.16;5053939;28;20512;-75
2024/02/20 03:01:59;;;;;;;7.72;4.53;;;;;;;10.00;53.82;99493.34;5037436;28;20029;-75
2024/02/20 03:04:25;;;;;;;6.72;4.82;;;;;;;10.00;53.64;99485.53;5053983;28;20040;-77
2024/02/20 03:06:50;;;;;;;7.82;4.63;;;;;;;9.98;53.63;99490.03;5054101;28;20037;-76
2024/02/20 03:09:18;;;;;;;6.53;3.90;;;;;;;10.00;53.88;99495.97;5054735;28;20033;-76
2024/02/20 03:11:43;;;;;;;6.82;4.22;;;;;;;9.97;53.83;99490.94;5037639;28;20090;-77
2024/02/20 03:14:10;;;;;;;7.43;4.20;;;;;;;9.99;53.65;99496.06;5020465;28;20459;-76
2024/02/20 03:16:36;;;;;;;6.63;4.40;;;;;;;9.94;53.78;99491.97;5020926;28;20472;-78
2024/02/20 03:19:01;;;;;;;6.82;4.45;;;;;;;10.00;53.80;99492.53;5036989;28;20029;-75
2024/02/20 03:21:27;;;;;;;7.55;4.68;;;;;;;9.95;54.06;99485.81;5053772;28;20117;-76
2024/02/20 03:23:53;;;;;;;8.85;4.85;;;;;;;9.98;53.82;99495.22;5020541;28;20476;-77
2024/02/20 03:26:18;;;;;;;8.18;4.70;;;;;;;9.99;54.10;99494.28;5020666;28;20044;-77
2024/02/20 03:28:45;;;;;;;6.18;4.13;;;;;;;9.96;54.01;99492.72;5020595;28;20036;-77
2024/02/20 03:31:11;;;;;;;6.75;4.68;;;;;;;9.99;54.13;99502.09;5053733;28;20078;-77
2024/02/20 03:33:37;;;;;;;8.32;4.57;;;;;;;9.98;53.94;99499.59;5036554;28;20044;-76
2024/02/20 03:36:03;;;;;;;6.97;4.40;;;;;;;10.00;53.90;99505.56;5054764;28;20078;-76
2024/02/20 03:38:28;;;;;;;7.38;4.65;;;;;;;9.99;54.01;99499.50;5036799;28;20021;-76
2024/02/20 03:40:54;;;;;;;7.15;4.63;;;;;;;9.99;54.15;99504.72;5053149;28;20454;-76
2024/02/20 03:43:19;;;;;;;7.00;4.15;;;;;;;9.97;54.32;99493.56;5036691;28;20024;-77
2024/02/20 03:45:45;;;;;;;7.38;4.30;;;;;;;9.92;54.10;99482.56;5020382;28;20139;-77
2024/02/20 03:48:10;;;;;;;8.13;4.45;;;;;;;9.97;54.21;99496.16;5020541;28;20076;-75
2024/02/20 03:50:36;;;;;;;7.55;4.07;;;;;;;9.93;54.08;99490.31;5053198;28;20408;-75
2024/02/20 03:53:02;;;;;;;8.25;4.47;;;;;;;9.97;54.10;99496.16;5053068;28;20045;-77
2024/02/20 03:55:28;;;;;;;8.00;4.80;;;;;;;9.99;54.01;99490.84;5020151;28;20040;-77
2024/02/20 03:57:53;;;;;;;6.55;4.43;;;;;;;9.98;54.22;99497.84;5053783;28;20094;-75
2024/02/20 04:00:24;;;;;;;8.07;4.53;;;;;;;9.96;54.19;99500.53;5054069;28;20032;-77
2024/02/20 04:02:49;;;;;;;7.85;4.53;;;;;;;9.92;54.25;99493.84;5020308;28;20155;-77
2024/02/20 04:05:15;;;;;;;8.60;4.82;;;;;;;9.97;54.31;99503.97;5036320;28;20035;-77
2024/02/20 04:07:41;;;;;;;6.68;4.65;;;;;;;9.92;54.16;99498.22;5043600;28;20025;-75
2024/02/20 04:10:10;;;;;;;6.40;4.45;;;;;;;9.94;54.37;99505.00;5047073;28;20472;-75
2024/02/20 04:12:36;;;;;;;6.13;4.65;;;;;;;9.95;54.16;99503.25;5019811;28;20481;-76
2024/02/20 04:15:06;;;;;;;7.22;4.90;;;;;;;9.93;54.20;99502.47;5036184;28;20035;-76
2024/02/20 04:17:31;;;;;;;6.53;4.60;;;;;;;9.91;54.19;99494.75;5020184;28;20480;-77
2024/02/20 04:20:00;;;;;;;8.85;4.78;;;;;;;9.93;54.18;99495.53;5036121;28;20021;-77
2024/02/20 04:22:26;;;;;;;4.82;3.60;;;;;;;10.05;61.47;99498.28;5019826;28;20028;-80
2024/02/20 04:24:51;;;;;;;6.25;3.83;;;;;;;10.27;64.69;99497.78;5036460;28;20034;-82
2024/02/20 04:27:17;;;;;;;6.82;3.92;;;;;;;10.28;61.42;99504.69;5020185;28;20120;-81
2024/02/20 04:29:43;;;;;;;8.55;4.30;;;;;;;10.20;60.39;99497.34;5036179;28;20045;-78
2024/02/20 04:32:08;;;;;;;6.80;4.10;;;;;;;10.20;59.33;99499.09;5036150;28;20094;-79
2024/02/20 04:34:33;;;;;;;7.10;4.35;;;;;;;10.17;58.64;99497.53;5035950;28;20040;-82
2024/02/20 04:36:59;;;;;;;8.05;4.60;;;;;;;10.12;59.90;99494.34;5053175;28;20036;-79
2024/02/20 04:39:24;;;;;;;7.13;4.45;;;;;;;10.15;58.92;99502.00;5035880;28;20446;-78
2024/02/20 04:41:50;;;;;;;7.43;4.65;;;;;;;10.12;58.64;99503.03;5019415;28;20036;-81
2024/02/20 04:44:15;;;;;;;6.80;4.25;;;;;;;10.07;58.26;99499.03;5019002;28;20393;-79
2024/02/20 04:46:41;;;;;;;16.55;5.82;;;;;;;10.25;66.33;99507.50;5036099;28;20129;-81
2024/02/20 04:49:07;;;;;;;9.85;5.40;;;;;;;10.26;63.81;99509.16;5036052;28;20515;-81
2024/02/20 04:51:35;;;;;;;11.88;5.57;;;;;;;10.23;62.31;99506.75;5035370;28;20097;-80
2024/02/20 04:54:00;;;;;;;10.93;5.22;;;;;;;10.15;61.25;99494.16;5052140;28;20024;-75
2024/02/20 04:56:26;;;;;;;14.63;5.50;;;;;;;10.16;60.32;99506.28;5052045;28;20507;-75
2024/02/20 04:58:51;;;;;;;9.75;4.90;;;;;;;10.06;59.81;99498.19;5035802;28;20522;-77
2024/02/20 05:01:17;;;;;;;8.52;5.05;;;;;;;10.09;59.16;99505.00;5018987;28;20048;-76
2024/02/20 05:03:43;;;;;;;8.30;5.40;;;;;;;10.06;58.92;99507.81;5052467;28;20029;-73
2024/02/20 05:06:10;;;;;;;7.13;4.85;;;;;;;10.04;58.44;99520.09;5034599;28;20369;-73
2024/02/20 05:08:35;;;;;;;6.40;4.70;;;;;;;10.00;58.18;99503.78;5033812;28;20032;-73
2024/02/20 05:11:00;;;;;;;7.63;5.05;;;;;;;9.99;57.71;99506.50;5051773;28;20025;-74
2024/02/20 05:13:26;;;;;;;9.38;4.80;;;;;;;9.98;57.50;99510.88;5052978;28;20029;-73
2024/02/20 05:15:51;;;;;;;5.82;4.63;;;;;;;9.96;57.26;99517.94;5051688;28;20036;-77
2024/02/20 05:18:17;;;;;;;8.75;4.68;;;;;;;9.91;56.69;99505.19;5035157;28;20499;-78
2024/02/20 05:20:42;;;;;;;9.75;5.00;;;;;;;9.88;56.76;99507.16;5052263;28;20056;-78
2024/02/20 05:23:08;;;;;;;7.22;4.30;;;;;;;9.88;56.50;99500.19;5053242;28;20074;-78
2024/02/20 05:25:33;;;;;;;7.55;4.53;;;;;;;9.87;56.14;99503.72;5018597;28;20029;-80
2024/02/20 05:27:59;;;;;;;9.32;4.63;;;;;;;9.92;56.36;99519.09;5051033;28;20349;-77
2024/02/20 05:30:24;;;;;;;9.45;5.13;;;;;;;9.91;55.98;99512.19;5052660;28;20025;-79
2024/02/20 05:32:50;;;;;;;6.35;4.25;;;;;;;9.87;55.65;99510.72;5051473;28;20454;-78
2024/02/20 05:35:16;;;;;;;10.57;4.40;;;;;;;9.90;55.57;99521.78;5051177;28;20182;-78
2024/02/20 05:37:41;;;;;;;8.55;4.97;;;;;;;9.85;55.48;99520.38;5051237;28;20024;-79
2024/02/20 05:40:12;;;;;;;7.05;4.07;;;;;;;9.85;55.47;99518.63;5034858;28;20021;-79
2024/02/20 05:42:37;;;;;;;5.90;4.13;;;;;;;9.87;55.18;99524.56;5019620;28;20469;-79
2024/02/20 05:45:03;;;;;;;6.63;4.40;;;;;;;9.92;55.21;99529.50;5018161;28;20061;-78
2024/02/20 05:47:28;;;;;;;7.53;4.70;;;;;;;9.91;55.18;99527.81;5050780;28;20140;-78
2024/02/20 05:49:54;;;;;;;8.02;5.00;;;;;;;9.91;55.10;99530.44;5018018;28;20033;-77
2024/02/20 05:52:20;;;;;;;8.32;4.45;;;;;;;9.89;54.69;99532.31;5033975;28;20506;-78
2024/02/20 05:54:46;;;;;;;6.32;4.35;;;;;;;9.88;54.95;99526.25;5018170;28;20409;-77
2024/02/20 05:57:12;;;;;;;6.10;4.53;;;;;;;9.93;54.74;99537.25;5035515;28;20025;-78
2024/02/20 05:59:37;;;;;;;7.10;4.63;;;;;;;9.87;54.37;99519.34;5051021;28;20025;-77
2024/02/20 06:02:03;;;;;;;7.32;4.47;;;;;;;9.93;54.44;99534.63;5034200;28;20048;-79
2024/02/20 06:04:28;;;;;;;7.40;4.35;;;;;;;9.98;54.38;99542.19;5033283;28;20643;-78
2024/02/20 06:06:54;;;;;;;7.88;4.80;;;;;;;9.84;54.39;99531.75;5050604;28;20060;-78
2024/02/20 06:09:19;;;;;;;9.18;5.30;;;;;;;9.98;54.34;99541.31;5050609;28;20048;-78
2024/02/20 06:11:45;;;;;;;8.15;4.75;;;;;;;10.01;54.15;99556.78;5050719;28;20033;-79
2024/02/20 06:14:10;;;;;;;8.18;4.97;;;;;;;10.03;53.75;99553.16;5034272;28;20338;-78
2024/02/20 06:16:38;;;;;;;9.45;4.75;;;;;;;10.03;53.80;99547.94;5033708;28;20041;-77
2024/02/20 06:19:03;;;;;;;11.63;5.47;;;;;;;10.05;54.11;99553.06;5034669;28;20029;-78
2024/02/20 06:21:29;;;;;;;7.82;4.80;;;;;;;10.06;53.84;99555.59;5034415;28;20040;-79
2024/02/20 06:23:54;;;;;;;8.50;4.55;;;;;;;10.07;53.80;99551.19;5050941;28;20033;-78
2024/02/20 06:26:22;;;;;;;9.10;5.05;;;;;;;10.07;53.65;99553.81;5050501;28;20052;-82
2024/02/20 06:28:47;;;;;;;8.85;5.93;;;;;;;10.04;53.75;99551.38;5050727;28;20506;-79
2024/02/20 06:31:13;;;;;;;7.05;4.88;;;;;;;10.10;53.55;99551.00;5033833;28;20045;-77
2024/02/20 06:33:41;;;;;;;9.80;5.20;;;;;;;10.12;53.44;99560.44;5033773;28;20468;-78
2024/02/20 06:36:07;;;;;;;;;;;;;;;10.14;53.51;99557.75;5034661;28;20032;-78
2024/02/20 06:38:33;;;;;;;9.30;5.30;;;;;;;10.12;53.42;99565.66;5050573;28;19912;-79
2024/02/20 06:40:59;;;;;;;9.40;6.22;;;;;;;10.12;53.54;99567.41;5050265;28;20041;-79
2024/02/20 06:43:25;;;;;;;9.45;5.55;;;;;;;10.13;53.26;99567.31;5033840;28;20475;-78
2024/02/20 06:45:52;;;;;;;8.43;5.03;;;;;;;10.16;53.52;99571.50;5049870;28;20045;-79
2024/02/20 06:48:18;;;;;;;11.65;7.32;;;;;;;10.21;56.70;99573.84;5036516;28;20025;-82
2024/02/20 06:50:44;;;;;;;10.43;8.35;;;;;;;10.27;56.15;99573.47;5051421;28;20527;-79
2024/02/20 06:53:09;;;;;;;15.48;12.15;;;;;;;10.49;60.92;99579.06;5016874;28;20025;-78
2024/02/20 06:55:35;;;;;;;18.30;11.15;;;;;;;10.53;58.49;99579.72;5050744;28;20033;-79
2024/02/20 06:58:01;;;;;;;21.02;10.90;;;;;;;10.54;57.76;99573.56;5033795;28;20162;-80
2024/02/20 07:00:26;;;;;;;17.95;10.85;;;;;;;10.55;56.84;99579.59;5033474;28;20045;-78
2024/02/20 07:02:52;;;;;;;16.45;11.90;;;;;;;10.55;56.33;99577.00;5017081;28;20397;-81
2024/02/20 07:05:18;;;;;;;19.48;12.80;;;;;;;10.50;56.35;99565.09;5033243;28;20500;-79
2024/02/20 07:07:46;;;;;;;21.52;13.05;;;;;;;10.54;56.13;99572.72;5033906;28;20029;-78
2024/02/20 07:10:12;;;;;;;21.48;13.80;;;;;;;10.56;55.93;99581.28;5051724;28;20036;-79
2024/02/20 07:12:37;;;;;;;18.95;14.20;;;;;;;10.56;55.36;99576.91;5050365;28;20033;-79
2024/02/20 07:15:05;;;;;;;23.92;15.93;;;;;;;10.57;55.34;99575.13;5035649;28;20480;-78
2024/02/20 07:17:31;;;;;;;22.43;16.27;;;;;;;10.56;54.94;99574.28;5054091;28;20400;-78
2024/02/20 07:19:56;;;;;;;26.23;17.13;;;;;;;10.59;54.90;99574.09;5020976;28;20366;-77
2024/02/20 07:22:22;;;;;;;24.15;16.25;;;;;;;10.59;54.48;99574.09;5053384;28;20052;-79
2024/02/20 07:24:47;;;;;;;22.75;16.55;;;;;;;10.58;54.33;99568.97;5021074;28;20028;-79
2024/02/20 07:27:13;;;;;;;25.73;16.88;;;;;;;10.61;54.28;99581.81;5020628;28;20036;-79
2024/02/20 07:29:42;;;;;;;22.67;16.60;;;;;;;10.64;53.96;99576.41;5036995;28;20041;-79
2024/02/20 07:32:11;;;;;;;23.00;16.75;;;;;;;10.62;53.75;99567.84;5037705;28;20040;-78
2024/02/20 07:34:38;;;;;;;22.00;15.25;;;;;;;10.66;53.69;99575.41;5021898;28;20025;-78
2024/02/20 07:37:04;;;;;;;25.83;15.25;;;;;;;10.68;53.55;99576.13;5021128;28;20138;-78
2024/02/20 07:39:30;;;;;;;29.70;15.93;;;;;;;10.71;53.48;99571.66;5037524;28;20017;-78
2024/02/20 07:41:55;;;;;;;22.25;15.35;;;;;;;10.73;53.22;99582.84;5037045;28;20041;-76
2024/02/20 07:44:21;;;;;;;22.65;15.15;;;;;;;10.71;52.77;99569.88;5036783;28;20044;-78
2024/02/20 07:46:49;;;;;;;25.42;14.48;;;;;;;10.72;52.73;99571.56;5020365;28;20071;-79
2024/02/20 07:49:15;;;;;;;20.80;9.43;;;;;;;11.11;68.55;99579.53;5037030;28;20040;-79
2024/02/20 07:51:40;;;;;;;14.63;9.50;;;;;;;11.32;68.73;99580.75;5020064;28;20040;-80
2024/02/20 07:54:06;;;;;;;14.95;10.05;;;;;;;11.41;67.56;99577.50;5020108;28;20496;-80
2024/02/20 07:56:31;;;;;;;13.15;9.73;;;;;;;11.69;68.46;99578.28;5036265;28;20491;-77
2024/02/20 07:58:57;;;;;;;17.02;9.80;;;;;;;11.80;67.32;99582.81;5036569;28;20051;-79
2024/02/20 08:01:24;;;;;;;16.30;9.50;;;;;;;11.88;66.88;99588.34;5019706;28;20102;-75
2024/02/20 08:03:52;;;;;;;25.92;9.40;;;;;;;11.89;65.87;99581.31;5054282;28;20033;-74
2024/02/20 08:06:21;;;;;;;16.90;8.95;;;;;;;11.90;65.52;99575.16;5020122;28;20032;-75
2024/02/20 08:08:47;;;;;;;10.70;8.73;;;;;;;11.96;64.28;99581.78;5036194;28;20512;-75
2024/02/20 08:11:13;;;;;;;17.98;8.65;;;;;;;11.92;64.05;99578.53;5052855;28;20161;-75
2024/02/20 08:13:45;;;;;;;13.40;8.15;;;;;;;11.91;63.46;99579.47;5036091;28;20021;-74
2024/02/20 08:16:11;;;;;;;11.07;8.43;;;;;;;11.92;63.54;99578.53;5036132;28;20045;-73
2024/02/20 08:18:37;;;;;;;9.35;7.97;;;;;;;11.97;63.87;99584.31;5019472;28;20420;-75
2024/02/20 08:21:02;;;;;;;10.80;7.85;;;;;;;11.98;63.75;99569.44;5019581;28;20036;-74
2024/02/20 08:23:28;;;;;;;11.18;7.97;;;;;;;12.07;63.82;99584.50;5052590;28;20492;-76
2024/02/20 08:25:53;;;;;;;16.90;7.22;;;;;;;12.09;63.75;99572.97;5035187;28;20147;-75
2024/02/20 08:28:19;;;;;;;12.38;7.55;;;;;;;12.26;65.59;99577.03;5052671;28;20040;-77
2024/02/20 08:30:45;;;;;;;9.63;7.15;;;;;;;12.50;65.68;99581.50;5051907;28;20095;-73
2024/02/20 08:33:11;;;;;;;10.98;7.43;;;;;;;12.60;64.82;99576.44;5035595;28;20526;-75
2024/02/20 08:35:37;;;;;;;9.57;6.78;;;;;;;12.71;64.66;99589.59;5035556;28;20136;-74
2024/02/20 08:38:02;;;;;;;11.02;6.90;;;;;;;12.85;66.19;99575.50;5053514;28;20029;-76
2024/02/20 08:40:28;;;;;;;12.73;7.13;;;;;;;13.29;64.47;99595.03;5033057;28;20045;-75
2024/02/20 08:42:54;;;;;;;11.32;6.50;;;;;;;13.28;63.28;99597.75;5049718;28;20134;-76
2024/02/20 08:45:19;;;;;;;10.38;6.07;;;;;;;13.16;62.71;99589.84;5049877;28;20052;-76
2024/02/20 08:47:45;;;;;;;8.90;6.45;;;;;;;13.07;62.26;99590.53;5033512;28;20048;-75
2024/02/20 08:50:11;;;;;;;8.57;5.72;;;;;;;13.02;62.06;99592.66;5033387;28;20114;-73
2024/02/20 08:52:36;;;;;;;10.95;6.30;;;;;;;12.86;61.43;99582.44;5050967;28;20033;-74
2024/02/20 08:55:03;;;;;;;13.30;6.45;;;;;;;12.78;61.39;99596.09;5034255;28;20028;-77
2024/02/20 08:57:29;;;;;;;9.70;5.28;;;;;;;13.12;64.98;99593.63;5035662;28;20182;-78
2024/02/20 08:59:54;;;;;;;10.23;5.22;;;;;;;13.21;64.00;99592.97;5034678;28;20127;-74
2024/02/20 09:02:20;;;;;;;8.80;4.72;;;;;;;13.29;63.16;99597.63;5051338;28;20408;-75
2024/02/20 09:04:45;;;;;;;5.88;4.63;;;;;;;13.42;63.19;99599.38;5051743;28;20029;-76
2024/02/20 09:07:11;;;;;;;6.93;4.97;;;;;;;13.92;61.17;99602.63;5051563;28;20033;-75
2024/02/20 09:09:37;;;;;;;6.63;4.70;;;;;;;13.96;60.49;99592.72;5034348;28;20041;-71
2024/02/20 09:12:02;;;;;;;7.55;4.85;;;;;;;13.85;60.07;99602.25;5035438;28;20060;-70
2024/02/20 09:14:28;;;;;;;6.57;4.25;;;;;;;13.69;59.63;99594.69;5039996;28;20372;-81
2024/02/20 09:16:53;;;;;;;6.65;4.30;;;;;;;13.96;61.30;99598.78;5036113;28;20520;-83
2024/02/20 09:19:21;;;;;;;9.65;4.68;;;;;;;13.92;60.37;99600.00;5054280;28;20403;-87
2024/02/20 09:21:48;;;;;;;6.88;4.43;;;;;;;13.75;60.14;99599.47;5054933;28;20044;-90
2024/02/20 09:24:13;;;;;;;10.20;5.07;;;;;;;13.61;60.07;99606.72;5022890;28;20029;-89
2024/02/20 09:26:38;;;;;;;7.32;4.30;;;;;;;13.49;59.72;99601.44;5023422;28;20036;-84
2024/02/20 09:29:04;;;;;;;6.63;4.47;;;;;;;13.36;59.84;99603.28;5051165;28;20523;-77
2024/02/20 09:31:29;;;;;;;12.23;4.78;;;;;;;13.18;59.86;99587.13;5032432;28;20021;-77
2024/02/20 09:33:55;;;;;;;8.95;4.57;;;;;;;13.09;60.29;99599.09;5033814;28;20459;-76
2024/02/20 09:36:21;;;;;;;6.25;4.55;;;;;;;12.96;60.19;99585.22;5033823;28;20036;-75
2024/02/20 09:38:46;;;;;;;5.60;4.10;;;;;;;12.88;60.07;99588.41;5033108;28;20037;-75
2024/02/20 09:41:13;;;;;;;7.82;5.05;;;;;;;12.79;60.40;99591.69;5050218;28;20025;-77
2024/02/20 09:43:38;;;;;;;7.35;4.60;;;;;;;12.70;60.46;99593.19;5034735;28;20400;-76
2024/02/20 09:46:07;;;;;;;6.85;4.55;;;;;;;12.61;60.50;99583.38;5034403;28;20049;-75
2024/02/20 09:48:32;;;;;;;9.23;4.78;;;;;;;12.60;60.78;99590.41;5051128;28;20036;-76
2024/02/20 09:51:01;;;;;;;7.75;4.97;;;;;;;12.51;61.01;99580.56;5050589;28;20492;-77
2024/02/20 09:53:28;;;;;;;7.80;4.93;;;;;;;12.49;60.71;99587.66;5016014;28;20029;-76
2024/02/20 09:55:54;;;;;;;7.68;5.05;;;;;;;12.40;60.55;99576.09;5032076;28;20028;-77
2024/02/20 09:58:19;;;;;;;8.80;4.43;;;;;;;12.41;60.54;99584.75;5031783;28;20037;-77
2024/02/20 10:00:45;;;;;;;6.50;5.00;;;;;;;12.37;60.34;99578.09;5031456;28;20037;-75
2024/02/20 10:03:10;;;;;;;7.97;5.43;;;;;;;12.39;60.33;99571.78;5015238;28;20409;-75
2024/02/20 10:05:38;;;;;;;9.05;5.35;;;;;;;12.42;59.86;99575.97;5015299;28;20029;-76
2024/02/20 10:08:04;;;;;;;11.02;5.32;;;;;;;12.43;59.40;99564.53;5033203;28;20484;-74
2024/02/20 10:10:31;;;;;;;8.18;5.15;;;;;;;12.52;59.44;99568.31;5050828;28;20032;-76
2024/02/20 10:12:59;;;;;;;8.30;4.90;;;;;;;12.62;58.77;99572.78;5050541;28;20048;-79
2024/02/20 10:15:25;;;;;;;6.85;5.07;;;;;;;12.71;58.61;99555.53;5034308;28;20094;-74
2024/02/20 10:18:00;;;;;;;8.43;5.35;;;;;;;12.84;58.05;99564.22;5034113;28;20029;-76
2024/02/20 10:20:25;;;;;;;6.82;4.72;;;;;;;12.99;57.43;99562.25;5033658;28;20037;-75
2024/02/20 10:22:51;;;;;;;7.45;5.22;;;;;;;13.14;57.12;99559.44;5050254;28;20044;-76
2024/02/20 10:25:16;;;;;;;7.85;5.30;;;;;;;13.17;57.13;99554.84;5051647;28;20480;-74
2024/02/20 10:27:43;;;;;;;6.82;4.80;;;;;;;13.24;56.75;99557.81;5033957;28;20033;-74
2024/02/20 10:30:09;;;;;;;7.22;4.90;;;;;;;13.33;56.57;99548.44;5034193;28;20078;-74
2024/02/20 10:32:38;;;;;;;7.43;4.97;;;;;;;13.41;56.67;99547.88;5033928;28;20021;-74
2024/02/20 10:35:05;;;;;;;8.52;5.20;;;;;;;13.50;56.03;99544.56;5033939;28;20154;-75
2024/02/20 10:37:31;;;;;;;5.68;4.55;;;;;;;13.70;55.46;99543.88;5033636;28;20029;-74
2024/02/20 10:40:23;;;;;;;7.65;4.60;;;;;;;13.81;55.21;99543.06;5050825;28;20108;-75
2024/02/20 10:42:49;;;;;;;7.07;4.68;;;;;;;13.87;54.99;99537.34;5049161;28;20040;-75
2024/02/20 10:45:15;;;;;;;9.20;4.97;;;;;;;13.87;54.95;99537.34;5017420;28;20392;-75
2024/02/20 10:47:45;;;;;;;7.32;5.03;;;;;;;13.82;54.65;99531.63;5017200;28;20029;-75
2024/02/20 10:50:12;;;;;;;8.05;5.05;;;;;;;13.81;54.84;99532.56;5052877;28;20554;-75
2024/02/20 10:52:37;;;;;;;6.65;4.72;;;;;;;13.80;54.92;99524.81;5037226;28;20024;-76
2024/02/20 10:55:07;;;;;;;7.32;4.90;;;;;;;13.82;54.65;99520.28;5037727;28;20037;-74
2024/02/20 10:57:35;;;;;;;6.03;4.40;;;;;;;13.87;54.30;99521.59;5037325;28;20509;-74
2024/02/20 11:00:03;;;;;;;6.28;4.38;;;;;;;13.91;54.14;99520.41;5020726;28;20415;-76
2024/02/20 11:02:28;;;;;;;7.43;4.60;;;;;;;13.94;53.84;99500.97;5037975;28;20059;-76
2024/02/20 11:04:54;;;;;;;7.35;4.90;;;;;;;13.96;53.68;99492.97;5020789;28;20036;-74
2024/02/20 11:07:20;;;;;;;9.45;5.00;;;;;;;14.04;53.30;99501.06;5037292;28;20378;-75
2024/02/20 11:10:06;;;;;;;8.82;5.40;;;;;;;14.02;53.39;99498.56;5037159;28;20107;-76
2024/02/20 11:12:32;;;;;;;7.07;4.72;;;;;;;13.99;53.00;99496.19;5055357;28;20365;-75
2024/02/20 11:15:13;;;;;;;7.05;4.60;;;;;;;13.94;53.13;99503.59;5037293;28;20029;-75
2024/02/20 11:17:39;;;;;;;8.63;5.05;;;;;;;13.92;53.26;99497.63;5021277;28;20021;-74
2024/02/20 11:20:09;;;;;;;7.38;4.80;;;;;;;13.89;53.23;99482.13;5053705;28;20082;-74
2024/02/20 11:22:35;;;;;;;8.25;4.82;;;;;;;13.92;53.12;99487.97;5053972;28;20029;-76
2024/02/20 11:25:08;;;;;;;8.18;5.05;;;;;;;13.91;53.08;99478.41;5036273;28;20044;-75
2024/02/20 11:27:52;;;;;;;8.25;4.78;;;;;;;13.96;52.81;99482.47;5037046;28;20033;-75